Terminal Aerodrome Forecast
Issued by NWS

Home | Current Version | Previous Version | Text Only | Print | Product List | Glossary On
Versions: 1 2 3 4 5 6 7 8 9 10 11 12 13 14 15
000
FTUS46 KSEW 220500
TAFCLM
TAF
KCLM 220520Z 2206/2306 08004KT P6SM -RA OVC040
     FM220900 VRB04KT 5SM RA BR OVC025
     FM221900 27006KT P6SM -RA OVC025
     FM230000 31007KT 5SM -SHRA BR OVC020=

USA.gov is the U.S. government's official web portal to all federal, state and local government web resources and services.